Time;durP1;ratioP1;P1;durP2;ratioP2;P2;SDS_P1;SDS_P2;PMS_P1;PMS_P2;Temp;Humidity;BMP_temperature;BMP_pressure;BME280_temperature;BME280_humidity;BME280_pressure;Samples;Min_cycle;Max_cycle;Signal;HPM_P1;HPM_P2
2023/03/12 00:02:20;;;;;;;1.20;1.20;;;17.00;61.80;;;;;;4972114;28;43702;-72
2023/03/12 00:04:48;;;;;;;1.43;1.40;;;17.00;61.90;;;;;;4989221;28;43624;-72
2023/03/12 00:07:16;;;;;;;1.20;1.20;;;16.90;61.90;;;;;;4989152;28;43528;-72
2023/03/12 00:09:44;;;;;;;1.30;1.30;;;16.90;61.70;;;;;;4989709;28;44004;-72
2023/03/12 00:12:12;;;;;;;1.30;1.30;;;16.90;61.90;;;;;;4989165;28;43589;-73
2023/03/12 00:14:40;;;;;;;1.30;1.30;;;16.90;61.80;;;;;;4988404;28;44899;-72
2023/03/12 00:17:10;;;;;;;1.40;1.40;;;16.90;61.90;;;;;;4970601;28;45136;-72
2023/03/12 00:19:39;;;;;;;1.30;1.30;;;16.90;61.90;;;;;;4971354;28;43442;-72
2023/03/12 00:22:07;;;;;;;1.30;1.30;;;16.90;62.00;;;;;;4989732;28;43397;-72
2023/03/12 00:24:35;;;;;;;1.47;1.47;;;16.90;62.10;;;;;;4988832;28;43960;-72
2023/03/12 00:27:03;;;;;;;1.17;1.17;;;17.00;61.90;;;;;;4988786;28;43881;-72
2023/03/12 00:29:31;;;;;;;1.50;1.50;;;17.10;61.60;;;;;;4974681;28;43996;-72
2023/03/12 00:31:59;;;;;;;1.30;1.30;;;17.20;61.20;;;;;;4971982;28;43725;-72
2023/03/12 00:34:27;;;;;;;1.30;1.30;;;17.10;61.20;;;;;;4989147;28;43939;-72
2023/03/12 00:36:56;;;;;;;1.37;1.37;;;17.10;61.30;;;;;;4971456;28;44531;-72
2023/03/12 00:39:24;;;;;;;1.40;1.40;;;17.10;61.50;;;;;;4976693;28;44054;-73
2023/03/12 00:41:52;;;;;;;1.30;1.30;;;17.00;61.40;;;;;;4971332;28;44059;-72
2023/03/12 00:44:20;;;;;;;1.30;1.30;;;17.10;61.40;;;;;;4987637;28;43900;-72
2023/03/12 00:46:48;;;;;;;1.33;1.33;;;17.00;61.50;;;;;;4989151;28;44508;-73
2023/03/12 00:49:16;;;;;;;1.10;1.10;;;17.00;61.60;;;;;;4970955;28;43526;-72
2023/03/12 00:51:44;;;;;;;1.40;1.40;;;17.00;61.80;;;;;;4971335;28;43590;-73
2023/03/12 00:54:13;;;;;;;1.40;1.40;;;16.90;61.70;;;;;;4988307;28;43820;-72
2023/03/12 00:56:41;;;;;;;1.27;1.27;;;16.90;61.90;;;;;;4988255;28;43375;-72
2023/03/12 00:59:09;;;;;;;1.20;1.20;;;16.90;61.70;;;;;;4970671;28;43965;-72
2023/03/12 01:01:37;;;;;;;1.20;1.20;;;16.90;61.70;;;;;;4988920;28;43529;-73
2023/03/12 01:04:05;;;;;;;1.17;1.17;;;16.90;61.80;;;;;;4970740;28;45753;-72
2023/03/12 01:06:33;;;;;;;1.33;1.33;;;16.90;61.80;;;;;;4970802;28;45028;-72
2023/03/12 01:09:01;;;;;;;1.20;1.20;;;16.90;61.90;;;;;;4970958;28;43427;-72
2023/03/12 01:11:31;;;;;;;1.20;1.20;;;16.90;62.00;;;;;;4988768;28;43624;-72
2023/03/12 01:13:59;;;;;;;1.20;1.20;;;16.90;61.80;;;;;;4987930;28;44082;-73
2023/03/12 01:16:29;;;;;;;1.10;1.10;;;16.90;61.80;;;;;;4988538;28;43940;-73
2023/03/12 01:18:57;;;;;;;1.20;1.20;;;16.90;61.90;;;;;;4983561;28;43516;-71
2023/03/12 01:21:25;;;;;;;1.30;1.30;;;16.80;61.80;;;;;;4971165;28;43481;-73
2023/03/12 01:23:53;;;;;;;1.30;1.30;;;16.90;61.90;;;;;;4970175;28;46104;-72
2023/03/12 01:26:21;;;;;;;1.50;1.40;;;16.80;61.90;;;;;;4987643;28;43355;-72
2023/03/12 01:28:51;;;;;;;1.30;1.30;;;16.80;62.70;;;;;;4988217;28;43928;-72
2023/03/12 01:31:19;;;;;;;1.30;1.30;;;17.00;62.00;;;;;;4970920;28;43444;-72
2023/03/12 01:33:49;;;;;;;1.00;1.00;;;17.10;61.60;;;;;;4981802;28;43868;-73
2023/03/12 01:36:18;;;;;;;1.30;1.30;;;17.10;61.10;;;;;;4973531;28;44959;-72
2023/03/12 01:38:46;;;;;;;1.43;1.43;;;17.10;61.00;;;;;;4987747;28;43389;-72
2023/03/12 01:41:14;;;;;;;1.20;1.20;;;17.10;61.10;;;;;;4970270;28;43838;-72
2023/03/12 01:43:42;;;;;;;1.23;1.23;;;17.10;61.40;;;;;;4970638;28;45624;-73
2023/03/12 01:46:31;;;;;;;1.10;1.10;;;17.10;61.30;;;;;;4970060;28;43470;-73
2023/03/12 01:49:03;;;;;;;1.00;1.00;;;17.00;61.30;;;;;;4970214;28;43550;-72
2023/03/12 01:51:34;;;;;;;1.10;1.10;;;17.00;61.40;;;;;;4976695;28;43435;-73
2023/03/12 01:54:04;;;;;;;1.13;1.13;;;17.00;61.50;;;;;;4969593;28;45916;-73
2023/03/12 01:56:33;;;;;;;1.37;1.37;;;16.90;61.50;;;;;;4970186;28;45609;-72
2023/03/12 01:59:03;;;;;;;1.30;1.30;;;16.90;61.80;;;;;;4969872;28;43320;-72
2023/03/12 02:01:33;;;;;;;1.20;1.20;;;16.90;61.60;;;;;;4971303;28;43474;-71
2023/03/12 02:04:01;;;;;;;1.23;1.23;;;16.90;61.70;;;;;;4970019;28;44991;-72
2023/03/12 02:06:33;;;;;;;1.50;1.50;;;16.90;61.70;;;;;;4969975;28;44487;-71
2023/03/12 02:09:01;;;;;;;1.30;1.30;;;16.90;61.70;;;;;;4969763;28;43438;-71
2023/03/12 02:11:31;;;;;;;1.47;1.47;;;16.90;61.80;;;;;;4972911;28;43477;-70
2023/03/12 02:13:59;;;;;;;1.40;1.40;;;16.80;61.80;;;;;;4969933;28;43930;-72
2023/03/12 02:16:27;;;;;;;1.60;1.60;;;16.90;62.00;;;;;;4975725;28;44837;-70
2023/03/12 02:18:57;;;;;;;1.40;1.40;;;17.00;61.80;;;;;;4969523;28;43435;-70
2023/03/12 02:21:26;;;;;;;1.20;1.20;;;17.00;61.30;;;;;;4971610;28;43450;-71
2023/03/12 02:23:58;;;;;;;1.40;1.40;;;17.10;61.20;;;;;;4968318;28;44096;-70
2023/03/12 02:26:30;;;;;;;1.13;1.13;;;17.00;61.10;;;;;;4964183;28;43991;-73
2023/03/12 02:29:00;;;;;;;1.40;1.40;;;17.00;61.30;;;;;;4973343;28;43373;-70
2023/03/12 02:31:30;;;;;;;1.50;1.50;;;17.00;61.60;;;;;;4970417;28;43513;-74
2023/03/12 02:33:59;;;;;;;1.20;1.20;;;17.00;61.40;;;;;;4986857;28;43900;-71
2023/03/12 02:36:27;;;;;;;1.40;1.40;;;17.00;61.50;;;;;;4969906;28;44713;-70
2023/03/12 02:38:55;;;;;;;1.47;1.47;;;17.00;61.50;;;;;;4987918;28;43380;-71
2023/03/12 02:41:24;;;;;;;1.27;1.27;;;16.90;61.50;;;;;;4969055;28;43807;-71
2023/03/12 02:43:57;;;;;;;1.23;1.23;;;16.90;61.60;;;;;;4986871;28;43922;-71
2023/03/12 02:46:25;;;;;;;1.20;1.20;;;16.90;61.90;;;;;;4970270;28;43362;-70
2023/03/12 02:48:53;;;;;;;1.30;1.30;;;16.90;61.70;;;;;;4987474;28;43543;-70
2023/03/12 02:51:21;;;;;;;1.20;1.20;;;16.90;61.70;;;;;;4987576;28;43447;-71
2023/03/12 02:53:53;;;;;;;1.50;1.50;;;16.90;61.80;;;;;;4971229;28;45892;-70
2023/03/12 02:56:22;;;;;;;1.30;1.30;;;16.80;61.60;;;;;;4969332;28;44976;-72
2023/03/12 02:58:50;;;;;;;1.40;1.40;;;16.80;61.70;;;;;;4971941;28;43400;-70
2023/03/12 03:01:19;;;;;;;1.20;1.20;;;16.80;61.80;;;;;;4970419;28;44574;-72
2023/03/12 03:03:47;;;;;;;1.27;1.27;;;16.80;62.00;;;;;;4968950;28;46587;-71
2023/03/12 03:06:15;;;;;;;1.33;1.33;;;16.90;61.80;;;;;;4968690;28;44713;-71
2023/03/12 03:08:43;;;;;;;1.37;1.37;;;17.00;61.40;;;;;;4968561;28;43386;-71
2023/03/12 03:11:12;;;;;;;1.50;1.40;;;17.00;61.00;;;;;;4970699;28;43530;-72
2023/03/12 03:13:40;;;;;;;1.40;1.40;;;17.10;61.20;;;;;;4969072;28;44234;-72
2023/03/12 03:16:11;;;;;;;1.20;1.20;;;17.00;61.20;;;;;;4969295;28;45044;-70
2023/03/12 03:18:40;;;;;;;1.37;1.37;;;17.00;61.40;;;;;;4986493;28;43388;-72
2023/03/12 03:21:09;;;;;;;1.27;1.27;;;17.00;62.20;;;;;;4987528;28;43686;-73
2023/03/12 03:23:37;;;;;;;1.30;1.30;;;17.00;61.30;;;;;;4968865;28;45950;-69
2023/03/12 03:26:05;;;;;;;1.40;1.40;;;16.90;61.40;;;;;;4986616;28;43912;-71
2023/03/12 03:28:33;;;;;;;1.30;1.30;;;16.90;61.40;;;;;;4973462;28;43443;-71
2023/03/12 03:31:01;;;;;;;1.40;1.40;;;16.90;61.60;;;;;;4986894;28;43460;-70
2023/03/12 03:33:34;;;;;;;1.40;1.40;;;16.90;61.70;;;;;;4972927;28;45800;-71
2023/03/12 03:36:06;;;;;;;1.20;1.20;;;16.90;61.80;;;;;;4986405;28;43441;-70
2023/03/12 03:38:37;;;;;;;1.27;1.27;;;16.90;61.60;;;;;;4972696;28;43370;-70
2023/03/12 03:41:06;;;;;;;1.20;1.20;;;16.90;61.80;;;;;;4974638;28;43529;-72
2023/03/12 03:43:39;;;;;;;1.43;1.30;;;16.90;61.80;;;;;;4968916;28;45875;-72
2023/03/12 03:46:07;;;;;;;1.63;1.63;;;16.80;61.70;;;;;;4982874;28;43438;-70
2023/03/12 03:48:38;;;;;;;1.30;1.30;;;16.80;61.70;;;;;;4963188;28;43347;-71
2023/03/12 03:51:10;;;;;;;1.33;1.33;;;16.80;62.00;;;;;;4974481;28;43426;-69
2023/03/12 03:53:41;;;;;;;1.30;1.30;;;16.90;62.70;;;;;;4968221;28;45548;-73
2023/03/12 03:56:11;;;;;;;1.23;1.23;;;17.00;61.50;;;;;;4968932;28;44800;-73
2023/03/12 03:58:42;;;;;;;1.20;1.20;;;17.00;61.20;;;;;;4965042;28;43414;-72
2023/03/12 04:01:10;;;;;;;1.20;1.20;;;17.00;61.30;;;;;;4969021;28;43410;-71
2023/03/12 04:03:38;;;;;;;1.40;1.40;;;17.00;61.40;;;;;;4964540;28;46645;-70
2023/03/12 04:06:08;;;;;;;1.40;1.40;;;16.90;61.40;;;;;;4971769;28;44588;-70
2023/03/12 04:08:37;;;;;;;1.13;1.13;;;16.90;61.60;;;;;;4968646;28;43510;-70
2023/03/12 04:11:08;;;;;;;1.40;1.40;;;16.90;61.50;;;;;;4969157;28;43560;-71
2023/03/12 04:13:37;;;;;;;1.20;1.20;;;16.90;61.60;;;;;;4968598;28;45988;-71
2023/03/12 04:16:06;;;;;;;1.40;1.40;;;16.90;61.70;;;;;;4968679;28;43988;-73
2023/03/12 04:18:35;;;;;;;1.20;1.20;;;16.80;61.70;;;;;;4968447;28;43437;-73
2023/03/12 04:21:03;;;;;;;1.20;1.20;;;16.80;61.80;;;;;;4972063;28;43920;-72
2023/03/12 04:23:33;;;;;;;1.20;1.20;;;16.80;61.90;;;;;;4971602;28;44732;-70
2023/03/12 04:26:01;;;;;;;1.43;1.43;;;16.90;61.80;;;;;;4970961;28;44751;-70
2023/03/12 04:28:30;;;;;;;1.30;1.30;;;16.90;61.40;;;;;;4980451;28;43447;-71
2023/03/12 04:30:59;;;;;;;1.40;1.40;;;16.90;61.40;;;;;;4972416;28;43768;-71
2023/03/12 04:33:35;;;;;;;1.30;1.30;;;16.90;61.50;;;;;;4971359;28;43924;-70
2023/03/12 04:36:04;;;;;;;1.20;1.20;;;16.90;61.60;;;;;;4971329;28;44481;-71
2023/03/12 04:38:35;;;;;;;1.20;1.20;;;16.80;61.70;;;;;;4976566;28;43446;-71
2023/03/12 04:41:06;;;;;;;1.30;1.30;;;16.80;61.50;;;;;;4970443;28;44043;-71
2023/03/12 04:43:36;;;;;;;1.10;1.10;;;16.80;61.50;;;;;;4970754;28;44077;-70
2023/03/12 04:46:04;;;;;;;1.27;1.27;;;16.80;61.60;;;;;;4971113;28;44887;-71
2023/03/12 04:48:33;;;;;;;1.30;1.20;;;16.80;61.70;;;;;;4986437;28;43751;-71
2023/03/12 04:51:01;;;;;;;1.30;1.30;;;16.80;61.70;;;;;;4969270;28;43616;-72
2023/03/12 04:53:29;;;;;;;1.17;1.17;;;16.80;61.80;;;;;;4971165;28;46126;-71
2023/03/12 04:55:59;;;;;;;1.20;1.20;;;16.80;61.80;;;;;;4975517;28;43392;-72
2023/03/12 04:58:28;;;;;;;1.30;1.30;;;16.90;61.60;;;;;;4974365;28;43443;-72
2023/03/12 05:00:56;;;;;;;1.10;1.10;;;17.00;61.20;;;;;;4986822;28;43278;-71
2023/03/12 05:03:24;;;;;;;1.20;1.20;;;17.00;61.00;;;;;;4970431;28;45823;-71
2023/03/12 05:05:52;;;;;;;1.30;1.30;;;17.00;61.20;;;;;;4975341;28;44300;-71
2023/03/12 05:08:20;;;;;;;1.20;1.20;;;17.00;61.30;;;;;;4971323;28;43422;-70
2023/03/12 05:10:48;;;;;;;1.30;1.30;;;16.90;61.40;;;;;;4971194;28;43418;-72
2023/03/12 05:13:20;;;;;;;1.20;1.20;;;17.00;61.20;;;;;;4968823;28;45606;-70
2023/03/12 05:15:51;;;;;;;1.10;1.10;;;16.90;61.20;;;;;;4971034;28;44856;-73
2023/03/12 05:18:20;;;;;;;1.20;1.20;;;16.90;61.40;;;;;;4971161;28;43962;-70
2023/03/12 05:20:58;;;;;;;1.13;1.13;;;16.90;61.50;;;;;;4971254;28;43605;-71
2023/03/12 05:23:26;;;;;;;1.30;1.30;;;16.90;61.50;;;;;;4975979;28;45032;-70
2023/03/12 05:25:54;;;;;;;1.27;1.27;;;16.90;61.60;;;;;;4971055;28;45043;-70
2023/03/12 05:28:26;;;;;;;1.33;1.33;;;16.90;61.60;;;;;;4979248;28;43425;-71
2023/03/12 05:30:57;;;;;;;1.30;1.30;;;16.90;61.50;;;;;;4970009;28;44021;-71
2023/03/12 05:33:25;;;;;;;1.20;1.20;;;16.90;61.60;;;;;;4972122;28;46013;-70
2023/03/12 05:35:54;;;;;;;1.10;1.10;;;16.90;61.60;;;;;;4970453;28;44799;-70
2023/03/12 05:38:22;;;;;;;1.20;1.20;;;16.80;61.60;;;;;;4970952;28;43334;-71
2023/03/12 05:40:52;;;;;;;1.10;1.10;;;16.80;61.70;;;;;;4975985;28;43979;-70
2023/03/12 05:43:20;;;;;;;1.20;1.20;;;16.80;61.70;;;;;;4976097;28;44560;-72
2023/03/12 05:45:50;;;;;;;1.17;1.17;;;16.90;61.60;;;;;;4978208;28;44658;-70
2023/03/12 05:48:19;;;;;;;1.10;1.10;;;17.00;61.30;;;;;;4986239;28;43389;-70
2023/03/12 05:50:46;;;;;;;1.30;1.30;;;17.10;60.90;;;;;;4987451;28;43435;-72
2023/03/12 05:53:14;;;;;;;1.30;1.30;;;17.10;60.70;;;;;;4969470;28;45535;-70
2023/03/12 05:55:43;;;;;;;1.10;1.10;;;17.10;60.80;;;;;;4969540;28;43847;-71
2023/03/12 05:58:11;;;;;;;1.47;1.47;;;17.10;61.10;;;;;;4986180;28;43346;-72
2023/03/12 06:00:40;;;;;;;1.20;1.20;;;17.00;61.00;;;;;;4970409;28;43390;-71
2023/03/12 06:03:11;;;;;;;1.20;1.20;;;17.00;60.90;;;;;;4969747;28;47181;-71
2023/03/12 06:05:39;;;;;;;1.10;1.10;;;17.00;61.20;;;;;;4975886;28;44971;-70
2023/03/12 06:08:07;;;;;;;1.10;1.10;;;17.00;61.20;;;;;;4970670;28;43732;-70
2023/03/12 06:10:37;;;;;;;1.30;1.30;;;16.90;61.30;;;;;;4974868;28;43578;-71
2023/03/12 06:13:05;;;;;;;1.10;1.10;;;16.90;61.50;;;;;;4968855;28;45632;-71
2023/03/12 06:15:34;;;;;;;1.10;1.10;;;16.90;61.60;;;;;;4969506;28;44523;-70
2023/03/12 06:18:04;;;;;;;1.10;1.10;;;16.90;62.20;;;;;;4969802;28;43422;-70
2023/03/12 06:20:34;;;;;;;1.23;1.23;;;16.90;61.60;;;;;;4988581;28;43986;-69
2023/03/12 06:23:02;;;;;;;1.23;1.23;;;16.80;61.60;;;;;;4987476;28;43805;-71
2023/03/12 06:25:31;;;;;;;1.20;1.20;;;16.80;61.70;;;;;;4969261;28;45082;-71
2023/03/12 06:27:59;;;;;;;1.00;1.00;;;16.80;61.70;;;;;;4969717;28;43455;-71
2023/03/12 06:30:27;;;;;;;1.30;1.30;;;16.80;61.90;;;;;;4987968;28;43352;-71
2023/03/12 06:32:55;;;;;;;1.00;1.00;;;16.80;61.80;;;;;;4982634;28;45744;-72
2023/03/12 06:35:23;;;;;;;1.07;1.07;;;16.90;61.50;;;;;;4987032;28;43970;-71
2023/03/12 06:37:52;;;;;;;1.20;1.20;;;16.90;61.20;;;;;;4969835;28;43459;-72
2023/03/12 06:40:20;;;;;;;1.20;1.20;;;16.90;61.20;;;;;;4981381;28;43887;-71
2023/03/12 06:42:48;;;;;;;1.00;1.00;;;16.90;61.40;;;;;;4980016;28;43609;-71
2023/03/12 06:45:16;;;;;;;1.30;1.30;;;16.90;61.30;;;;;;4964816;28;45394;-71
2023/03/12 06:47:44;;;;;;;1.20;1.20;;;16.90;61.50;;;;;;4963851;28;43423;-72
2023/03/12 06:50:12;;;;;;;1.40;1.40;;;16.90;61.30;;;;;;4985828;28;43485;-71
2023/03/12 06:52:40;;;;;;;1.20;1.20;;;16.90;61.50;;;;;;4980660;28;43915;-71
2023/03/12 06:55:10;;;;;;;1.10;1.10;;;16.90;61.50;;;;;;4970103;28;45158;-72
2023/03/12 06:57:38;;;;;;;1.10;1.10;;;16.90;61.50;;;;;;4981270;28;43328;-70
2023/03/12 07:00:07;;;;;;;1.10;1.10;;;16.90;61.60;;;;;;4987474;28;43428;-72
2023/03/12 07:02:36;;;;;;;1.30;1.30;;;16.80;61.60;;;;;;4986823;28;44042;-72
2023/03/12 07:05:04;;;;;;;1.20;1.20;;;16.90;61.60;;;;;;4969461;28;44011;-71
2023/03/12 07:07:32;;;;;;;1.10;1.10;;;17.00;61.40;;;;;;4984214;28;43353;-71
2023/03/12 07:10:00;;;;;;;1.13;1.13;;;17.00;60.90;;;;;;4987473;28;43876;-71
2023/03/12 07:12:30;;;;;;;1.10;1.10;;;17.10;61.00;;;;;;4986951;28;43773;-69
2023/03/12 07:14:58;;;;;;;1.13;1.13;;;17.00;60.90;;;;;;4987233;28;43442;-72
2023/03/12 07:17:26;;;;;;;1.30;1.30;;;17.00;61.10;;;;;;4969050;28;43423;-73
2023/03/12 07:19:54;;;;;;;1.17;1.17;;;17.00;61.30;;;;;;4969606;28;43488;-71
2023/03/12 07:22:21;;;;;;;1.10;1.10;;;16.90;61.20;;;;;;4986370;28;43620;-72
2023/03/12 07:24:50;;;;;;;1.30;1.30;;;16.90;61.20;;;;;;4969325;28;45429;-72
2023/03/12 07:27:18;;;;;;;1.30;1.30;;;16.90;61.40;;;;;;4986276;28;43991;-69
2023/03/12 07:29:47;;;;;;;1.30;1.30;;;16.90;61.40;;;;;;4987156;28;43919;-71
2023/03/12 07:32:15;;;;;;;1.20;1.20;;;16.90;61.60;;;;;;4982765;28;43912;-70
2023/03/12 07:34:43;;;;;;;1.30;1.30;;;16.80;61.60;;;;;;4969023;28;44804;-73
2023/03/12 07:37:11;;;;;;;1.20;1.20;;;16.80;61.40;;;;;;4986950;28;43990;-71
2023/03/12 07:39:39;;;;;;;1.20;1.20;;;16.80;61.50;;;;;;4988435;28;43513;-70
2023/03/12 07:42:07;;;;;;;1.10;1.10;;;16.80;61.60;;;;;;4968245;28;46069;-73
2023/03/12 07:44:36;;;;;;;1.27;1.27;;;16.80;61.60;;;;;;4969024;28;43426;-70
2023/03/12 07:47:06;;;;;;;1.20;1.20;;;16.80;61.60;;;;;;4968751;28;43938;-70
2023/03/12 07:49:50;;;;;;;1.30;1.30;;;16.80;61.70;;;;;;4984198;28;44418;-71
2023/03/12 07:52:19;;;;;;;1.10;1.10;;;16.80;61.70;;;;;;4986351;28;44055;-71
2023/03/12 07:54:47;;;;;;;1.10;1.10;;;16.90;61.50;;;;;;4988323;28;43843;-69
2023/03/12 07:57:15;;;;;;;1.20;1.20;;;17.00;61.20;;;;;;4989753;28;43424;-71
2023/03/12 07:59:44;;;;;;;1.13;1.13;;;17.00;61.20;;;;;;4976322;28;43964;-71
2023/03/12 08:02:13;;;;;;;1.30;1.30;;;17.00;61.20;;;;;;4989216;28;43602;-72
2023/03/12 08:04:41;;;;;;;1.23;1.23;;;16.90;61.20;;;;;;4994150;28;44127;-71
2023/03/12 08:07:09;;;;;;;1.20;1.20;;;16.90;61.50;;;;;;4988894;28;43501;-71
2023/03/12 08:09:37;;;;;;;1.17;1.17;;;16.90;61.30;;;;;;4972185;28;43431;-70
2023/03/12 08:12:06;;;;;;;1.17;1.17;;;16.90;61.40;;;;;;4989501;28;43852;-71
2023/03/12 08:14:34;;;;;;;1.40;1.40;;;16.90;61.50;;;;;;4989179;28;43407;-70
2023/03/12 08:17:02;;;;;;;1.30;1.30;;;16.90;61.60;;;;;;4988194;28;43456;-71
2023/03/12 08:19:31;;;;;;;1.17;1.17;;;16.80;61.50;;;;;;4989945;28;43806;-72
2023/03/12 08:21:59;;;;;;;1.20;1.20;;;16.80;61.60;;;;;;4989293;28;43961;-69
2023/03/12 08:24:27;;;;;;;1.30;1.30;;;16.80;61.70;;;;;;4972077;28;44678;-70
2023/03/12 08:26:55;;;;;;;1.23;1.23;;;16.90;61.60;;;;;;4989493;28;43398;-71
2023/03/12 08:29:23;;;;;;;1.20;1.20;;;16.90;61.20;;;;;;4977806;28;43522;-71
2023/03/12 08:31:51;;;;;;;1.10;1.10;;;16.90;61.20;;;;;;4989262;28;43597;-72
2023/03/12 08:34:33;;;;;;;1.40;1.40;;;16.90;61.30;;;;;;4988898;28;43771;-71
2023/03/12 08:37:01;;;;;;;1.30;1.30;;;16.90;61.50;;;;;;4966478;28;43539;-72
2023/03/12 08:39:29;;;;;;;1.23;1.23;;;16.80;61.50;;;;;;4989663;28;43413;-73
2023/03/12 08:41:57;;;;;;;1.30;1.30;;;16.80;61.40;;;;;;4989068;28;44021;-70
2023/03/12 08:44:25;;;;;;;1.37;1.37;;;16.80;61.50;;;;;;4971984;28;45502;-71
2023/03/12 08:46:53;;;;;;;1.40;1.40;;;16.80;61.50;;;;;;4971718;28;43553;-70
2023/03/12 08:49:21;;;;;;;1.37;1.37;;;16.80;61.60;;;;;;4989385;28;43452;-72
2023/03/12 08:51:51;;;;;;;1.50;1.50;;;16.80;61.70;;;;;;4982587;28;43849;-72
2023/03/12 08:54:19;;;;;;;1.40;1.40;;;16.80;61.80;;;;;;4985831;28;43423;-69
2023/03/12 08:56:50;;;;;;;1.30;1.30;;;16.80;61.80;;;;;;4989014;28;43407;-72
2023/03/12 08:59:19;;;;;;;1.10;1.10;;;16.80;61.70;;;;;;4989585;28;43422;-71
2023/03/12 09:01:47;;;;;;;1.40;1.40;;;16.80;61.70;;;;;;4971212;28;46187;-72
2023/03/12 09:04:15;;;;;;;1.20;1.20;;;16.80;61.80;;;;;;4988840;28;43462;-70
2023/03/12 09:06:43;;;;;;;1.43;1.43;;;16.70;61.70;;;;;;4987792;28;43390;-71
2023/03/12 09:09:12;;;;;;;1.20;1.20;;;16.80;61.90;;;;;;4991110;28;43441;-70
2023/03/12 09:11:41;;;;;;;1.30;1.30;;;16.70;61.90;;;;;;4970861;28;46479;-71
2023/03/12 09:14:11;;;;;;;1.30;1.30;;;16.80;61.90;;;;;;4988530;28;44075;-70
2023/03/12 09:16:58;;;;;;;1.40;1.40;;;16.80;61.60;;;;;;4974564;28;43530;-71
2023/03/12 09:19:26;;;;;;;1.10;1.10;;;17.00;61.30;;;;;;4987615;28;43498;-71
2023/03/12 09:21:54;;;;;;;1.27;1.27;;;17.00;61.10;;;;;;4987444;28;43856;-70
2023/03/12 09:24:24;;;;;;;1.20;1.20;;;17.00;61.10;;;;;;4988226;28;43822;-70
2023/03/12 09:26:52;;;;;;;1.47;1.47;;;17.00;61.30;;;;;;4988118;28;43381;-70
2023/03/12 09:29:20;;;;;;;1.40;1.40;;;16.90;61.30;;;;;;4988920;28;43407;-72
2023/03/12 09:31:48;;;;;;;1.30;1.30;;;16.90;61.30;;;;;;4970877;28;46036;-72
2023/03/12 09:34:16;;;;;;;1.20;1.20;;;16.90;61.40;;;;;;4969803;28;44871;-71
2023/03/12 09:36:44;;;;;;;1.40;1.40;;;16.90;61.50;;;;;;4987672;28;43908;-72
2023/03/12 09:39:12;;;;;;;1.20;1.20;;;16.80;61.50;;;;;;4986484;28;43462;-71
2023/03/12 09:41:42;;;;;;;1.30;1.30;;;16.80;61.60;;;;;;4988034;28;43897;-71
2023/03/12 09:44:12;;;;;;;1.30;1.30;;;16.80;61.70;;;;;;4988034;28;44051;-71
2023/03/12 09:46:42;;;;;;;1.47;1.47;;;16.80;61.70;;;;;;4988313;28;43946;-70
2023/03/12 09:49:14;;;;;;;1.17;1.17;;;16.80;61.70;;;;;;4988686;28;44011;-70
2023/03/12 09:51:43;;;;;;;1.20;1.20;;;16.80;61.80;;;;;;4988301;28;43927;-72
2023/03/12 09:54:18;;;;;;;1.30;1.30;;;16.80;61.80;;;;;;4987517;28;43456;-70
2023/03/12 09:56:47;;;;;;;1.40;1.40;;;16.80;61.90;;;;;;4981778;28;44010;-70
2023/03/12 09:59:15;;;;;;;1.20;1.20;;;16.80;62.00;;;;;;4984231;28;43430;-72
2023/03/12 10:01:47;;;;;;;1.30;1.30;;;16.80;62.00;;;;;;4981599;28;43719;-71
2023/03/12 10:04:41;;;;;;;1.27;1.27;;;16.80;61.70;;;;;;4983329;28;43472;-71
2023/03/12 10:07:28;;;;;;;1.40;1.40;;;16.90;61.40;;;;;;4970303;28;43448;-70
2023/03/12 10:10:10;;;;;;;1.50;1.50;;;16.90;61.30;;;;;;4981931;28;43559;-70
2023/03/12 10:12:46;;;;;;;1.20;1.20;;;16.90;61.40;;;;;;4987697;28;43662;-70
2023/03/12 10:15:20;;;;;;;1.30;1.30;;;16.80;61.40;;;;;;4987563;28;43461;-70
2023/03/12 10:17:54;;;;;;;1.40;1.40;;;16.80;61.60;;;;;;4969370;28;43599;-71
2023/03/12 10:20:33;;;;;;;1.20;1.20;;;16.80;61.50;;;;;;4987958;28;43447;-70
2023/03/12 10:23:04;;;;;;;1.20;1.20;;;16.80;61.60;;;;;;4969867;28;45725;-69
2023/03/12 10:25:35;;;;;;;1.20;1.20;;;16.80;61.70;;;;;;4966072;28;44747;-71
2023/03/12 10:28:10;;;;;;;1.30;1.30;;;16.80;61.80;;;;;;4967016;28;43445;-71
2023/03/12 10:30:38;;;;;;;1.20;1.20;;;16.80;61.90;;;;;;4988018;28;43952;-72
2023/03/12 10:33:06;;;;;;;1.33;1.33;;;16.70;61.90;;;;;;4987457;28;43902;-71
2023/03/12 10:35:35;;;;;;;1.33;1.33;;;16.80;61.90;;;;;;4987285;28;43429;-70
2023/03/12 10:38:04;;;;;;;1.30;1.30;;;16.80;61.90;;;;;;4986847;28;43960;-71
2023/03/12 10:40:33;;;;;;;1.53;1.53;;;16.80;62.70;;;;;;4983305;28;43502;-73
2023/03/12 10:43:01;;;;;;;1.50;1.50;;;16.80;62.00;;;;;;4987156;28;43969;-71
2023/03/12 10:45:35;;;;;;;1.50;1.50;;;16.80;62.00;;;;;;4987384;28;43449;-72
2023/03/12 10:48:05;;;;;;;1.20;1.20;;;16.70;62.00;;;;;;4987340;28;43997;-71
2023/03/12 10:50:34;;;;;;;1.40;1.40;;;16.80;62.00;;;;;;4987641;28;43494;-72
2023/03/12 10:53:31;;;;;;;1.30;1.30;;;16.80;61.70;;;;;;4987006;28;44034;-71
2023/03/12 10:56:03;;;;;;;1.30;1.30;;;17.00;61.30;;;;;;4939132;28;44091;-71
2023/03/12 10:58:33;;;;;;;1.20;1.20;;;17.00;61.20;;;;;;4987076;28;43404;-71
2023/03/12 11:01:03;;;;;;;1.50;1.50;;;16.90;61.20;;;;;;4987754;28;43484;-70
2023/03/12 11:03:32;;;;;;;1.30;1.30;;;16.90;61.40;;;;;;4971671;28;46186;-71
2023/03/12 11:06:01;;;;;;;1.50;1.50;;;16.90;61.50;;;;;;4986610;28;43479;-71
2023/03/12 11:08:29;;;;;;;1.17;1.17;;;16.90;61.40;;;;;;4986812;28;43380;-71
2023/03/12 11:10:58;;;;;;;1.30;1.30;;;16.90;61.60;;;;;;4987607;28;43420;-70
2023/03/12 11:13:30;;;;;;;1.30;1.30;;;16.90;61.60;;;;;;4987199;28;43918;-71
2023/03/12 11:15:59;;;;;;;1.20;1.20;;;16.80;61.60;;;;;;4968635;28;44501;-70
2023/03/12 11:18:33;;;;;;;1.30;1.30;;;16.80;61.70;;;;;;4964690;28;43509;-71
2023/03/12 11:21:17;;;;;;;1.23;1.23;;;16.80;61.90;;;;;;4969430;28;43415;-69
2023/03/12 11:23:47;;;;;;;1.33;1.33;;;16.80;61.80;;;;;;4987126;28;43928;-71
2023/03/12 11:26:19;;;;;;;1.37;1.37;;;16.80;61.70;;;;;;4986578;28;43923;-70
2023/03/12 11:28:48;;;;;;;1.40;1.40;;;16.80;61.90;;;;;;4975161;28;43382;-71
2023/03/12 11:31:23;;;;;;;1.30;1.30;;;16.80;61.90;;;;;;4993518;28;43472;-71
2023/03/12 11:34:04;;;;;;;1.23;1.23;;;16.80;61.90;;;;;;4975474;28;45982;-72
2023/03/12 11:36:39;;;;;;;1.40;1.40;;;16.80;62.00;;;;;;4993123;28;44134;-70
2023/03/12 11:39:12;;;;;;;1.30;1.30;;;16.80;62.00;;;;;;4974773;28;43405;-70
2023/03/12 11:41:51;;;;;;;1.20;1.20;;;16.90;61.80;;;;;;4975452;28;43645;-72
2023/03/12 11:44:27;;;;;;;1.37;1.37;;;16.90;61.50;;;;;;4992708;28;43862;-72
2023/03/12 11:47:04;;;;;;;1.30;1.30;;;16.90;61.60;;;;;;4989069;28;43430;-70
2023/03/12 11:49:56;;;;;;;1.20;1.20;;;16.90;61.60;;;;;;4970196;28;43353;-71
2023/03/12 11:52:27;;;;;;;1.13;1.13;;;16.90;61.80;;;;;;4974440;28;43549;-70
2023/03/12 11:55:07;;;;;;;1.30;1.30;;;16.90;61.80;;;;;;4992553;28;43911;-72
2023/03/12 11:57:39;;;;;;;1.47;1.47;;;16.90;61.80;;;;;;4985779;28;43754;-72
2023/03/12 12:00:12;;;;;;;1.20;1.20;;;16.80;61.80;;;;;;4987192;28;43420;-71
2023/03/12 12:03:05;;;;;;;1.20;1.20;;;16.80;61.80;;;;;;4992674;28;43464;-70
2023/03/12 12:05:42;;;;;;;1.30;1.30;;;16.80;61.90;;;;;;4992811;28;44813;-71
2023/03/12 12:08:23;;;;;;;1.20;1.20;;;16.80;62.00;;;;;;4992823;28;44138;-70
2023/03/12 12:10:56;;;;;;;1.43;1.43;;;16.80;61.90;;;;;;4983053;28;44002;-71
2023/03/12 12:13:26;;;;;;;1.20;1.20;;;16.80;62.00;;;;;;4992636;28;43394;-72
2023/03/12 12:15:58;;;;;;;1.30;1.30;;;16.80;62.00;;;;;;4992719;28;44419;-72
2023/03/12 12:18:34;;;;;;;1.33;1.23;;;16.80;62.00;;;;;;4992445;28;43387;-70
2023/03/12 12:21:07;;;;;;;1.20;1.20;;;16.80;62.00;;;;;;4992617;28;43419;-71
2023/03/12 12:23:41;;;;;;;1.50;1.50;;;16.80;62.20;;;;;;4973291;28;43904;-71
2023/03/12 12:26:09;;;;;;;1.30;1.30;;;16.80;62.30;;;;;;4992736;28;43699;-71
2023/03/12 12:29:16;;;;;;;1.27;1.27;;;16.80;62.10;;;;;;4977789;28;43711;-71
2023/03/12 12:31:46;;;;;;;1.33;1.33;;;16.90;61.70;;;;;;4972986;28;43439;-70
2023/03/12 12:34:48;;;;;;;1.30;1.30;;;16.90;61.60;;;;;;4992846;28;43438;-70
2023/03/12 12:37:23;;;;;;;1.40;1.40;;;16.90;61.70;;;;;;4992101;28;43573;-72
2023/03/12 12:39:55;;;;;;;1.10;1.10;;;16.90;61.90;;;;;;4976900;28;45276;-72
2023/03/12 12:42:25;;;;;;;1.10;1.10;;;16.90;61.90;;;;;;4989354;28;43425;-70
2023/03/12 12:44:53;;;;;;;1.40;1.40;;;16.90;62.00;;;;;;4972027;28;43897;-70
2023/03/12 12:47:24;;;;;;;1.00;1.00;;;16.90;62.10;;;;;;4969613;28;44218;-70
2023/03/12 12:49:54;;;;;;;1.20;1.20;;;16.90;62.10;;;;;;4975155;28;44698;-70
2023/03/12 12:52:24;;;;;;;1.13;1.13;;;16.80;62.10;;;;;;4975624;28;43458;-70
2023/03/12 12:54:59;;;;;;;1.50;1.50;;;16.80;62.10;;;;;;4989032;28;43619;-72
2023/03/12 12:57:29;;;;;;;1.47;1.47;;;16.80;62.30;;;;;;4988967;28;43600;-71
2023/03/12 13:00:16;;;;;;;1.10;1.10;;;16.80;62.20;;;;;;4988540;28;43449;-72
2023/03/12 13:02:46;;;;;;;1.20;1.20;;;16.90;62.00;;;;;;4984719;28;43478;-71
2023/03/12 13:05:22;;;;;;;1.20;1.20;;;16.90;61.90;;;;;;4989254;28;43359;-72